Accueil
METAR-TAF:

METAR-TAF

Aéroports :

Lugano, Suisse

Aéroport de Lugano

latitude: 46-00N, longitude: 008-58E, altitude: 273 m

Observation

Le bulletin a été fait il y a 35 minutes, à 20:50 UTC
Vent calme
Température 10°C
Humidité 100%
Pression 1008 hPa
Visibilité: 2100 m
Quelques nuages à une hauteur de 2500 ft
Nuages épars à une hauteur de 3000 ft
Nuages fragmentés à une hauteur de 3600 ft
pluie faible, brume

METAR: LSZA 262050Z AUTO 00000KT 2100 -RA BR FEW025 SCT030 BKN036 10/10 Q1008

Heure: 23:25 (21:25 UTC)

Prévision

Le bulletin a été fait il y a 7 heures et 0 minutes, à 14:25 UTC
Prévision valable du 26 à 15 UTC au 26 à 24 UTC
Vent 3 kt de direction variable
Visibilité: 6000 m
Quelques nuages à une hauteur de 400 ft
Nuages fragmentés à une hauteur de 3000 ft
pluie
Temporairement
du 26 à 15 UTC au 26 à 24 UTC
Visibilité: 4500 m
pluie

TAF: LSZA 261425Z 2615/2624 VRB03KT 6000 RA FEW004 BKN030 TEMPO 2615/2624 4500 RA

Observations et prévisions météorologiques de plus de 4000 aéroports (messages METAR et TAF).

Les stations disponibles sont représentées par des disques jaunes et rouges sur la carte.

Passer la souris dessus pour voir le nom de la station.

Cliquer dessus pour voir les observations et prévisions météorologiques.

Pour changer de carte: cliquez sur les boutons verts avec une croix noire pour zoomer, sur le bouton vert avec un tiret pour effectuer un zoom arrière, ou sur les flèches vertes pour les cartes adjacentes.


METAR-TAF: